sensor_id;sensor_type;location;lat;lon;timestamp;temperature;humidity
23301;DHT22;11819;51.394;12.340;2023-08-08T00:00:44;14.20;94.70
23301;DHT22;11819;51.394;12.340;2023-08-08T00:03:09;14.20;94.70
23301;DHT22;11819;51.394;12.340;2023-08-08T00:05:35;14.20;94.60
23301;DHT22;11819;51.394;12.340;2023-08-08T00:08:01;14.10;94.50
23301;DHT22;11819;51.394;12.340;2023-08-08T00:10:26;14.10;94.50
23301;DHT22;11819;51.394;12.340;2023-08-08T00:12:52;14.10;94.60
23301;DHT22;11819;51.394;12.340;2023-08-08T00:15:17;14.10;94.60
23301;DHT22;11819;51.394;12.340;2023-08-08T00:17:43;14.10;94.70
23301;DHT22;11819;51.394;12.340;2023-08-08T00:20:09;14.10;94.60
23301;DHT22;11819;51.394;12.340;2023-08-08T00:22:35;14.00;94.60
23301;DHT22;11819;51.394;12.340;2023-08-08T00:25:01;14.00;94.70
23301;DHT22;11819;51.394;12.340;2023-08-08T00:27:27;14.00;94.80
23301;DHT22;11819;51.394;12.340;2023-08-08T00:29:53;14.00;95.00
23301;DHT22;11819;51.394;12.340;2023-08-08T00:32:20;14.00;94.90
23301;DHT22;11819;51.394;12.340;2023-08-08T00:34:45;14.00;94.90
23301;DHT22;11819;51.394;12.340;2023-08-08T00:37:11;14.00;94.80
23301;DHT22;11819;51.394;12.340;2023-08-08T00:39:37;13.90;94.80
23301;DHT22;11819;51.394;12.340;2023-08-08T00:42:03;13.90;94.90
23301;DHT22;11819;51.394;12.340;2023-08-08T00:44:28;13.90;94.90
23301;DHT22;11819;51.394;12.340;2023-08-08T00:46:54;13.90;94.90
23301;DHT22;11819;51.394;12.340;2023-08-08T00:49:20;13.90;94.90
23301;DHT22;11819;51.394;12.340;2023-08-08T00:51:47;13.80;95.00
23301;DHT22;11819;51.394;12.340;2023-08-08T00:54:13;13.80;95.10
23301;DHT22;11819;51.394;12.340;2023-08-08T00:56:39;13.70;95.10
23301;DHT22;11819;51.394;12.340;2023-08-08T00:59:06;13.70;95.20
23301;DHT22;11819;51.394;12.340;2023-08-08T01:01:33;13.70;95.20
23301;DHT22;11819;51.394;12.340;2023-08-08T01:03:58;13.80;95.20
23301;DHT22;11819;51.394;12.340;2023-08-08T01:06:38;13.70;95.20
23301;DHT22;11819;51.394;12.340;2023-08-08T01:09:15;13.70;95.10
23301;DHT22;11819;51.394;12.340;2023-08-08T01:11:44;13.70;95.10
23301;DHT22;11819;51.394;12.340;2023-08-08T01:14:14;13.60;95.20
23301;DHT22;11819;51.394;12.340;2023-08-08T01:16:41;13.60;95.20
23301;DHT22;11819;51.394;12.340;2023-08-08T01:19:08;13.60;95.20
23301;DHT22;11819;51.394;12.340;2023-08-08T01:21:38;13.60;95.10
23301;DHT22;11819;51.394;12.340;2023-08-08T01:24:23;13.60;95.10
23301;DHT22;11819;51.394;12.340;2023-08-08T01:26:51;13.60;95.20
23301;DHT22;11819;51.394;12.340;2023-08-08T01:29:17;13.50;95.20
23301;DHT22;11819;51.394;12.340;2023-08-08T01:31:43;13.50;95.30
23301;DHT22;11819;51.394;12.340;2023-08-08T01:34:09;13.50;95.30
23301;DHT22;11819;51.394;12.340;2023-08-08T01:36:56;13.40;95.40
23301;DHT22;11819;51.394;12.340;2023-08-08T01:39:26;13.40;95.40
23301;DHT22;11819;51.394;12.340;2023-08-08T01:41:54;13.40;95.40
23301;DHT22;11819;51.394;12.340;2023-08-08T01:44:20;13.50;95.50
23301;DHT22;11819;51.394;12.340;2023-08-08T01:46:47;13.50;95.40
23301;DHT22;11819;51.394;12.340;2023-08-08T01:49:13;13.50;95.40
23301;DHT22;11819;51.394;12.340;2023-08-08T01:51:39;13.40;95.40
23301;DHT22;11819;51.394;12.340;2023-08-08T01:54:05;13.40;95.50
23301;DHT22;11819;51.394;12.340;2023-08-08T01:56:31;13.40;95.50
23301;DHT22;11819;51.394;12.340;2023-08-08T01:58:58;13.40;95.60
23301;DHT22;11819;51.394;12.340;2023-08-08T02:01:24;13.40;95.70
23301;DHT22;11819;51.394;12.340;2023-08-08T02:03:50;13.40;95.40
23301;DHT22;11819;51.394;12.340;2023-08-08T02:06:15;13.40;95.50
23301;DHT22;11819;51.394;12.340;2023-08-08T02:08:41;13.40;95.40
23301;DHT22;11819;51.394;12.340;2023-08-08T02:11:07;13.40;95.50
23301;DHT22;11819;51.394;12.340;2023-08-08T02:13:32;13.30;95.40
23301;DHT22;11819;51.394;12.340;2023-08-08T02:15:58;13.30;95.50
23301;DHT22;11819;51.394;12.340;2023-08-08T02:18:24;13.30;95.50
23301;DHT22;11819;51.394;12.340;2023-08-08T02:20:49;13.30;95.50
23301;DHT22;11819;51.394;12.340;2023-08-08T02:23:15;13.40;95.50
23301;DHT22;11819;51.394;12.340;2023-08-08T02:25:40;13.30;95.50
23301;DHT22;11819;51.394;12.340;2023-08-08T02:28:06;13.30;95.50
23301;DHT22;11819;51.394;12.340;2023-08-08T02:30:32;13.30;95.50
23301;DHT22;11819;51.394;12.340;2023-08-08T02:32:57;13.30;95.60
23301;DHT22;11819;51.394;12.340;2023-08-08T02:35:25;13.30;95.50
23301;DHT22;11819;51.394;12.340;2023-08-08T02:37:51;13.30;95.50
23301;DHT22;11819;51.394;12.340;2023-08-08T02:40:16;13.20;95.50
23301;DHT22;11819;51.394;12.340;2023-08-08T02:42:43;13.20;95.60
23301;DHT22;11819;51.394;12.340;2023-08-08T02:45:08;13.20;95.70
23301;DHT22;11819;51.394;12.340;2023-08-08T02:47:34;13.20;95.70
23301;DHT22;11819;51.394;12.340;2023-08-08T02:50:00;13.30;95.80
23301;DHT22;11819;51.394;12.340;2023-08-08T02:52:25;13.20;95.70
23301;DHT22;11819;51.394;12.340;2023-08-08T02:54:51;13.20;95.70
23301;DHT22;11819;51.394;12.340;2023-08-08T02:57:17;13.30;95.70
23301;DHT22;11819;51.394;12.340;2023-08-08T02:59:43;13.20;95.70
23301;DHT22;11819;51.394;12.340;2023-08-08T03:02:09;13.20;95.80
23301;DHT22;11819;51.394;12.340;2023-08-08T03:04:37;13.20;95.90
23301;DHT22;11819;51.394;12.340;2023-08-08T03:07:05;13.20;95.90
23301;DHT22;11819;51.394;12.340;2023-08-08T03:09:32;13.20;96.00
23301;DHT22;11819;51.394;12.340;2023-08-08T03:11:58;13.20;96.00
23301;DHT22;11819;51.394;12.340;2023-08-08T03:14:24;13.20;96.00
23301;DHT22;11819;51.394;12.340;2023-08-08T03:16:50;13.20;96.10
23301;DHT22;11819;51.394;12.340;2023-08-08T03:19:15;13.20;96.20
23301;DHT22;11819;51.394;12.340;2023-08-08T03:21:41;13.20;96.20
23301;DHT22;11819;51.394;12.340;2023-08-08T03:24:07;13.20;96.30
23301;DHT22;11819;51.394;12.340;2023-08-08T03:26:33;13.20;96.30
23301;DHT22;11819;51.394;12.340;2023-08-08T03:28:58;13.20;96.30
23301;DHT22;11819;51.394;12.340;2023-08-08T03:31:31;13.20;96.40
23301;DHT22;11819;51.394;12.340;2023-08-08T03:34:00;13.20;96.40
23301;DHT22;11819;51.394;12.340;2023-08-08T03:36:26;13.20;96.40
23301;DHT22;11819;51.394;12.340;2023-08-08T03:38:52;13.20;96.50
23301;DHT22;11819;51.394;12.340;2023-08-08T03:41:17;13.20;96.40
23301;DHT22;11819;51.394;12.340;2023-08-08T03:43:43;13.20;96.40
23301;DHT22;11819;51.394;12.340;2023-08-08T03:46:09;13.20;96.40
23301;DHT22;11819;51.394;12.340;2023-08-08T03:48:36;13.20;96.40
23301;DHT22;11819;51.394;12.340;2023-08-08T03:51:02;13.20;96.50
23301;DHT22;11819;51.394;12.340;2023-08-08T03:53:27;13.20;96.50
23301;DHT22;11819;51.394;12.340;2023-08-08T03:55:53;13.20;96.50
23301;DHT22;11819;51.394;12.340;2023-08-08T03:58:19;13.20;96.50
23301;DHT22;11819;51.394;12.340;2023-08-08T04:00:45;13.20;96.60
23301;DHT22;11819;51.394;12.340;2023-08-08T04:03:16;13.20;96.60
23301;DHT22;11819;51.394;12.340;2023-08-08T04:05:45;13.20;96.70
23301;DHT22;11819;51.394;12.340;2023-08-08T04:08:15;13.20;96.70
23301;DHT22;11819;51.394;12.340;2023-08-08T04:10:42;13.20;96.70
23301;DHT22;11819;51.394;12.340;2023-08-08T04:13:08;13.30;96.80
23301;DHT22;11819;51.394;12.340;2023-08-08T04:15:35;13.30;96.70
23301;DHT22;11819;51.394;12.340;2023-08-08T04:18:01;13.30;96.70
23301;DHT22;11819;51.394;12.340;2023-08-08T04:20:26;13.40;96.70
23301;DHT22;11819;51.394;12.340;2023-08-08T04:22:52;13.40;96.70
23301;DHT22;11819;51.394;12.340;2023-08-08T04:25:17;13.40;96.70
23301;DHT22;11819;51.394;12.340;2023-08-08T04:27:43;13.40;96.70
23301;DHT22;11819;51.394;12.340;2023-08-08T04:30:09;13.40;96.60
23301;DHT22;11819;51.394;12.340;2023-08-08T04:32:35;13.50;96.60
23301;DHT22;11819;51.394;12.340;2023-08-08T04:35:00;13.50;96.50
23301;DHT22;11819;51.394;12.340;2023-08-08T04:37:26;13.60;96.40
23301;DHT22;11819;51.394;12.340;2023-08-08T04:39:51;13.60;96.40
23301;DHT22;11819;51.394;12.340;2023-08-08T04:42:17;13.60;96.40
23301;DHT22;11819;51.394;12.340;2023-08-08T04:44:43;13.60;96.30
23301;DHT22;11819;51.394;12.340;2023-08-08T04:47:08;13.70;96.20
23301;DHT22;11819;51.394;12.340;2023-08-08T04:49:34;13.70;96.10
23301;DHT22;11819;51.394;12.340;2023-08-08T04:51:59;13.70;96.20
23301;DHT22;11819;51.394;12.340;2023-08-08T04:54:25;13.70;96.20
23301;DHT22;11819;51.394;12.340;2023-08-08T04:56:51;13.70;96.10
23301;DHT22;11819;51.394;12.340;2023-08-08T04:59:16;13.70;96.10
23301;DHT22;11819;51.394;12.340;2023-08-08T05:01:42;13.80;96.10
23301;DHT22;11819;51.394;12.340;2023-08-08T05:04:08;13.80;96.10
23301;DHT22;11819;51.394;12.340;2023-08-08T05:06:34;13.80;96.10
23301;DHT22;11819;51.394;12.340;2023-08-08T05:08:59;13.90;96.00
23301;DHT22;11819;51.394;12.340;2023-08-08T05:11:25;13.90;96.00
23301;DHT22;11819;51.394;12.340;2023-08-08T05:13:51;13.90;95.90
23301;DHT22;11819;51.394;12.340;2023-08-08T05:16:17;13.90;96.20
23301;DHT22;11819;51.394;12.340;2023-08-08T05:18:43;13.90;95.90
23301;DHT22;11819;51.394;12.340;2023-08-08T05:21:10;14.00;95.80
23301;DHT22;11819;51.394;12.340;2023-08-08T05:23:36;14.00;95.70
23301;DHT22;11819;51.394;12.340;2023-08-08T05:26:02;14.00;95.70
23301;DHT22;11819;51.394;12.340;2023-08-08T05:28:28;14.00;95.80
23301;DHT22;11819;51.394;12.340;2023-08-08T05:30:54;14.00;95.60
23301;DHT22;11819;51.394;12.340;2023-08-08T05:33:20;14.00;95.60
23301;DHT22;11819;51.394;12.340;2023-08-08T05:35:45;14.00;95.50
23301;DHT22;11819;51.394;12.340;2023-08-08T05:38:11;14.10;95.60
23301;DHT22;11819;51.394;12.340;2023-08-08T05:40:37;14.10;95.50
23301;DHT22;11819;51.394;12.340;2023-08-08T05:43:03;14.10;95.30
23301;DHT22;11819;51.394;12.340;2023-08-08T05:45:29;14.10;95.60
23301;DHT22;11819;51.394;12.340;2023-08-08T05:47:55;14.10;95.20
23301;DHT22;11819;51.394;12.340;2023-08-08T05:50:21;14.10;95.20
23301;DHT22;11819;51.394;12.340;2023-08-08T05:52:47;14.10;95.00
23301;DHT22;11819;51.394;12.340;2023-08-08T05:55:13;14.20;94.90
23301;DHT22;11819;51.394;12.340;2023-08-08T05:57:38;14.20;94.80
23301;DHT22;11819;51.394;12.340;2023-08-08T06:00:05;14.20;94.80
23301;DHT22;11819;51.394;12.340;2023-08-08T06:02:38;14.20;94.60
23301;DHT22;11819;51.394;12.340;2023-08-08T06:05:04;14.30;94.50
23301;DHT22;11819;51.394;12.340;2023-08-08T06:07:30;14.30;94.20
23301;DHT22;11819;51.394;12.340;2023-08-08T06:09:56;14.30;94.30
23301;DHT22;11819;51.394;12.340;2023-08-08T06:12:21;14.40;94.10
23301;DHT22;11819;51.394;12.340;2023-08-08T06:14:47;14.40;94.20
23301;DHT22;11819;51.394;12.340;2023-08-08T06:17:13;14.50;94.20
23301;DHT22;11819;51.394;12.340;2023-08-08T06:19:40;14.50;93.80
23301;DHT22;11819;51.394;12.340;2023-08-08T06:22:05;14.60;93.80
23301;DHT22;11819;51.394;12.340;2023-08-08T06:24:31;14.70;94.10
23301;DHT22;11819;51.394;12.340;2023-08-08T06:26:57;14.70;93.70
23301;DHT22;11819;51.394;12.340;2023-08-08T06:29:22;14.70;93.60
23301;DHT22;11819;51.394;12.340;2023-08-08T06:31:48;14.70;93.60
23301;DHT22;11819;51.394;12.340;2023-08-08T06:34:14;14.70;93.70
23301;DHT22;11819;51.394;12.340;2023-08-08T06:36:40;14.70;93.80
23301;DHT22;11819;51.394;12.340;2023-08-08T06:39:06;14.70;93.80
23301;DHT22;11819;51.394;12.340;2023-08-08T06:41:32;14.80;93.80
23301;DHT22;11819;51.394;12.340;2023-08-08T06:43:58;14.80;93.80
23301;DHT22;11819;51.394;12.340;2023-08-08T06:46:24;14.80;93.80
23301;DHT22;11819;51.394;12.340;2023-08-08T06:48:50;14.80;93.80
23301;DHT22;11819;51.394;12.340;2023-08-08T06:51:18;14.80;93.80
23301;DHT22;11819;51.394;12.340;2023-08-08T06:53:43;14.90;93.80
23301;DHT22;11819;51.394;12.340;2023-08-08T06:56:09;14.90;93.90
23301;DHT22;11819;51.394;12.340;2023-08-08T06:58:35;15.00;93.90
23301;DHT22;11819;51.394;12.340;2023-08-08T07:01:00;15.10;93.90
23301;DHT22;11819;51.394;12.340;2023-08-08T07:03:26;15.20;93.80
23301;DHT22;11819;51.394;12.340;2023-08-08T07:05:52;15.30;93.30
23301;DHT22;11819;51.394;12.340;2023-08-08T07:08:19;15.40;93.10
23301;DHT22;11819;51.394;12.340;2023-08-08T07:10:45;15.50;93.30
23301;DHT22;11819;51.394;12.340;2023-08-08T07:13:10;15.50;93.20
23301;DHT22;11819;51.394;12.340;2023-08-08T07:15:36;15.50;93.00
23301;DHT22;11819;51.394;12.340;2023-08-08T07:18:02;15.50;92.80
23301;DHT22;11819;51.394;12.340;2023-08-08T07:20:28;15.50;92.60
23301;DHT22;11819;51.394;12.340;2023-08-08T07:22:54;15.50;92.40
23301;DHT22;11819;51.394;12.340;2023-08-08T07:25:20;15.50;92.30
23301;DHT22;11819;51.394;12.340;2023-08-08T07:27:45;15.50;92.40
23301;DHT22;11819;51.394;12.340;2023-08-08T07:30:11;15.40;92.30
23301;DHT22;11819;51.394;12.340;2023-08-08T07:32:37;15.40;92.10
23301;DHT22;11819;51.394;12.340;2023-08-08T07:35:03;15.30;92.40
23301;DHT22;11819;51.394;12.340;2023-08-08T07:37:32;15.30;92.50
23301;DHT22;11819;51.394;12.340;2023-08-08T07:39:58;15.20;92.60
23301;DHT22;11819;51.394;12.340;2023-08-08T07:42:24;15.20;92.90
23301;DHT22;11819;51.394;12.340;2023-08-08T07:44:49;15.20;93.00
23301;DHT22;11819;51.394;12.340;2023-08-08T07:47:15;15.10;93.30
23301;DHT22;11819;51.394;12.340;2023-08-08T07:49:41;15.10;93.50
23301;DHT22;11819;51.394;12.340;2023-08-08T07:52:06;15.10;93.70
23301;DHT22;11819;51.394;12.340;2023-08-08T07:54:33;15.10;93.90
23301;DHT22;11819;51.394;12.340;2023-08-08T07:56:59;15.20;94.00
23301;DHT22;11819;51.394;12.340;2023-08-08T07:59:25;15.20;94.30
23301;DHT22;11819;51.394;12.340;2023-08-08T08:01:51;15.20;94.30
23301;DHT22;11819;51.394;12.340;2023-08-08T08:04:16;15.20;94.40
23301;DHT22;11819;51.394;12.340;2023-08-08T08:06:42;15.20;94.40
23301;DHT22;11819;51.394;12.340;2023-08-08T08:09:08;15.20;94.40
23301;DHT22;11819;51.394;12.340;2023-08-08T08:11:33;15.20;94.60
23301;DHT22;11819;51.394;12.340;2023-08-08T08:13:59;15.20;94.50
23301;DHT22;11819;51.394;12.340;2023-08-08T08:16:24;15.20;94.20
23301;DHT22;11819;51.394;12.340;2023-08-08T08:18:50;15.30;93.90
23301;DHT22;11819;51.394;12.340;2023-08-08T08:21:16;15.30;93.60
23301;DHT22;11819;51.394;12.340;2023-08-08T08:23:43;15.30;93.50
23301;DHT22;11819;51.394;12.340;2023-08-08T08:26:09;15.30;93.50
23301;DHT22;11819;51.394;12.340;2023-08-08T08:28:35;15.40;93.50
23301;DHT22;11819;51.394;12.340;2023-08-08T08:31:07;15.40;93.60
23301;DHT22;11819;51.394;12.340;2023-08-08T08:33:34;15.40;93.60
23301;DHT22;11819;51.394;12.340;2023-08-08T08:35:59;15.40;93.60
23301;DHT22;11819;51.394;12.340;2023-08-08T08:38:25;15.40;93.60
23301;DHT22;11819;51.394;12.340;2023-08-08T08:40:53;15.40;93.70
23301;DHT22;11819;51.394;12.340;2023-08-08T08:43:19;15.40;93.80
23301;DHT22;11819;51.394;12.340;2023-08-08T08:45:50;15.40;93.80
23301;DHT22;11819;51.394;12.340;2023-08-08T08:48:16;15.40;94.10
23301;DHT22;11819;51.394;12.340;2023-08-08T08:50:43;15.40;94.60
23301;DHT22;11819;51.394;12.340;2023-08-08T08:53:11;15.30;94.70
23301;DHT22;11819;51.394;12.340;2023-08-08T08:55:39;15.30;95.00
23301;DHT22;11819;51.394;12.340;2023-08-08T08:58:06;15.30;95.20
23301;DHT22;11819;51.394;12.340;2023-08-08T09:00:31;15.30;95.00
23301;DHT22;11819;51.394;12.340;2023-08-08T09:02:58;15.30;95.20
23301;DHT22;11819;51.394;12.340;2023-08-08T09:05:25;15.20;95.50
23301;DHT22;11819;51.394;12.340;2023-08-08T09:07:51;15.20;96.10
23301;DHT22;11819;51.394;12.340;2023-08-08T09:10:18;15.10;96.30
23301;DHT22;11819;51.394;12.340;2023-08-08T09:12:44;15.00;96.50
23301;DHT22;11819;51.394;12.340;2023-08-08T09:15:11;15.00;96.80
23301;DHT22;11819;51.394;12.340;2023-08-08T09:17:41;14.90;96.80
23301;DHT22;11819;51.394;12.340;2023-08-08T09:20:09;14.90;97.20
23301;DHT22;11819;51.394;12.340;2023-08-08T09:22:37;15.00;97.10
23301;DHT22;11819;51.394;12.340;2023-08-08T09:25:03;15.00;97.20
23301;DHT22;11819;51.394;12.340;2023-08-08T09:27:29;15.00;97.30
23301;DHT22;11819;51.394;12.340;2023-08-08T09:29:55;15.10;96.90
23301;DHT22;11819;51.394;12.340;2023-08-08T09:32:20;15.20;96.90
23301;DHT22;11819;51.394;12.340;2023-08-08T09:34:47;15.30;97.00
23301;DHT22;11819;51.394;12.340;2023-08-08T09:37:12;15.40;96.90
23301;DHT22;11819;51.394;12.340;2023-08-08T09:39:40;15.50;96.60
23301;DHT22;11819;51.394;12.340;2023-08-08T09:42:07;15.60;96.30
23301;DHT22;11819;51.394;12.340;2023-08-08T09:44:33;15.70;96.30
23301;DHT22;11819;51.394;12.340;2023-08-08T09:47:01;15.90;96.50
23301;DHT22;11819;51.394;12.340;2023-08-08T09:49:27;16.10;96.30
23301;DHT22;11819;51.394;12.340;2023-08-08T09:51:54;16.30;95.90
23301;DHT22;11819;51.394;12.340;2023-08-08T09:54:21;16.50;94.80
23301;DHT22;11819;51.394;12.340;2023-08-08T09:56:48;16.60;94.40
23301;DHT22;11819;51.394;12.340;2023-08-08T09:59:15;16.70;94.00
23301;DHT22;11819;51.394;12.340;2023-08-08T10:01:43;16.70;93.50
23301;DHT22;11819;51.394;12.340;2023-08-08T10:04:11;16.70;93.70
23301;DHT22;11819;51.394;12.340;2023-08-08T10:06:37;16.80;92.80
23301;DHT22;11819;51.394;12.340;2023-08-08T10:09:03;17.00;92.70
23301;DHT22;11819;51.394;12.340;2023-08-08T10:11:30;17.10;91.90
23301;DHT22;11819;51.394;12.340;2023-08-08T10:13:56;17.20;90.60
23301;DHT22;11819;51.394;12.340;2023-08-08T10:16:22;17.20;90.80
23301;DHT22;11819;51.394;12.340;2023-08-08T10:19:00;17.30;90.60
23301;DHT22;11819;51.394;12.340;2023-08-08T10:21:26;17.30;90.30
23301;DHT22;11819;51.394;12.340;2023-08-08T10:24:04;17.40;90.30
23301;DHT22;11819;51.394;12.340;2023-08-08T10:26:30;17.40;90.20
23301;DHT22;11819;51.394;12.340;2023-08-08T10:28:57;17.40;90.10
23301;DHT22;11819;51.394;12.340;2023-08-08T10:31:24;17.40;90.10
23301;DHT22;11819;51.394;12.340;2023-08-08T10:34:01;17.40;90.40
23301;DHT22;11819;51.394;12.340;2023-08-08T10:36:49;17.30;90.20
23301;DHT22;11819;51.394;12.340;2023-08-08T10:39:19;17.20;90.00
23301;DHT22;11819;51.394;12.340;2023-08-08T10:41:47;17.20;90.00
23301;DHT22;11819;51.394;12.340;2023-08-08T10:44:13;17.20;89.70
23301;DHT22;11819;51.394;12.340;2023-08-08T10:46:41;17.20;90.00
23301;DHT22;11819;51.394;12.340;2023-08-08T10:49:07;17.30;90.20
23301;DHT22;11819;51.394;12.340;2023-08-08T10:51:41;17.30;89.70
23301;DHT22;11819;51.394;12.340;2023-08-08T10:54:16;17.30;89.70
23301;DHT22;11819;51.394;12.340;2023-08-08T10:56:50;17.40;89.20
23301;DHT22;11819;51.394;12.340;2023-08-08T10:59:24;17.40;88.40
23301;DHT22;11819;51.394;12.340;2023-08-08T11:01:52;17.40;88.50
23301;DHT22;11819;51.394;12.340;2023-08-08T11:04:22;17.40;89.30
23301;DHT22;11819;51.394;12.340;2023-08-08T11:06:49;17.50;89.00
23301;DHT22;11819;51.394;12.340;2023-08-08T11:09:16;17.60;89.00
23301;DHT22;11819;51.394;12.340;2023-08-08T11:11:43;17.70;87.40
23301;DHT22;11819;51.394;12.340;2023-08-08T11:14:14;17.70;87.50
23301;DHT22;11819;51.394;12.340;2023-08-08T11:16:41;17.80;86.70
23301;DHT22;11819;51.394;12.340;2023-08-08T11:19:07;17.80;86.40
23301;DHT22;11819;51.394;12.340;2023-08-08T11:21:36;17.90;86.30
23301;DHT22;11819;51.394;12.340;2023-08-08T11:24:04;18.00;86.50
23301;DHT22;11819;51.394;12.340;2023-08-08T11:26:30;18.20;84.90
23301;DHT22;11819;51.394;12.340;2023-08-08T11:28:59;18.30;84.70
23301;DHT22;11819;51.394;12.340;2023-08-08T11:31:25;18.40;83.80
23301;DHT22;11819;51.394;12.340;2023-08-08T11:33:53;18.60;83.90
23301;DHT22;11819;51.394;12.340;2023-08-08T11:36:19;18.80;83.10
23301;DHT22;11819;51.394;12.340;2023-08-08T11:38:46;19.00;81.40
23301;DHT22;11819;51.394;12.340;2023-08-08T11:41:13;19.20;81.50
23301;DHT22;11819;51.394;12.340;2023-08-08T11:43:45;19.40;79.90
23301;DHT22;11819;51.394;12.340;2023-08-08T11:46:15;19.60;77.90
23301;DHT22;11819;51.394;12.340;2023-08-08T11:48:41;19.80;77.30
23301;DHT22;11819;51.394;12.340;2023-08-08T11:51:08;19.80;75.90
23301;DHT22;11819;51.394;12.340;2023-08-08T11:53:34;19.70;76.00
23301;DHT22;11819;51.394;12.340;2023-08-08T11:56:01;19.60;76.00
23301;DHT22;11819;51.394;12.340;2023-08-08T11:58:29;19.60;76.80
23301;DHT22;11819;51.394;12.340;2023-08-08T12:00:56;19.60;77.10
23301;DHT22;11819;51.394;12.340;2023-08-08T12:03:24;19.60;76.00
23301;DHT22;11819;51.394;12.340;2023-08-08T12:05:51;19.40;75.10
23301;DHT22;11819;51.394;12.340;2023-08-08T12:08:19;19.30;75.50
23301;DHT22;11819;51.394;12.340;2023-08-08T12:10:50;19.20;75.40
23301;DHT22;11819;51.394;12.340;2023-08-08T12:13:23;19.10;75.40
23301;DHT22;11819;51.394;12.340;2023-08-08T12:15:52;19.10;75.20
23301;DHT22;11819;51.394;12.340;2023-08-08T12:18:19;19.20;74.50
23301;DHT22;11819;51.394;12.340;2023-08-08T12:20:45;19.20;75.30
23301;DHT22;11819;51.394;12.340;2023-08-08T12:23:12;19.30;75.40
23301;DHT22;11819;51.394;12.340;2023-08-08T12:25:38;19.50;74.50
23301;DHT22;11819;51.394;12.340;2023-08-08T12:28:04;19.80;74.30
23301;DHT22;11819;51.394;12.340;2023-08-08T12:30:31;20.10;72.40
23301;DHT22;11819;51.394;12.340;2023-08-08T12:32:57;20.40;71.70
23301;DHT22;11819;51.394;12.340;2023-08-08T12:35:23;20.50;70.20
23301;DHT22;11819;51.394;12.340;2023-08-08T12:37:52;20.70;69.10
23301;DHT22;11819;51.394;12.340;2023-08-08T12:40:18;20.70;69.40
23301;DHT22;11819;51.394;12.340;2023-08-08T12:42:43;20.80;67.90
23301;DHT22;11819;51.394;12.340;2023-08-08T12:45:09;20.80;68.00
23301;DHT22;11819;51.394;12.340;2023-08-08T12:47:36;20.80;67.70
23301;DHT22;11819;51.394;12.340;2023-08-08T12:50:06;20.70;68.40
23301;DHT22;11819;51.394;12.340;2023-08-08T12:52:33;20.70;69.10
23301;DHT22;11819;51.394;12.340;2023-08-08T12:54:59;21.00;68.20
23301;DHT22;11819;51.394;12.340;2023-08-08T12:57:25;21.00;66.70
23301;DHT22;11819;51.394;12.340;2023-08-08T12:59:50;21.00;67.80
23301;DHT22;11819;51.394;12.340;2023-08-08T13:02:16;21.30;67.60
23301;DHT22;11819;51.394;12.340;2023-08-08T13:04:42;21.70;64.50
23301;DHT22;11819;51.394;12.340;2023-08-08T13:07:07;21.80;61.80
23301;DHT22;11819;51.394;12.340;2023-08-08T13:09:33;21.50;63.50
23301;DHT22;11819;51.394;12.340;2023-08-08T13:11:59;21.20;63.60
23301;DHT22;11819;51.394;12.340;2023-08-08T13:14:24;20.90;64.80
23301;DHT22;11819;51.394;12.340;2023-08-08T13:16:50;20.70;65.80
23301;DHT22;11819;51.394;12.340;2023-08-08T13:19:16;20.60;66.90
23301;DHT22;11819;51.394;12.340;2023-08-08T13:21:45;20.50;67.00
23301;DHT22;11819;51.394;12.340;2023-08-08T13:24:10;20.40;66.60
23301;DHT22;11819;51.394;12.340;2023-08-08T13:26:38;20.30;67.00
23301;DHT22;11819;51.394;12.340;2023-08-08T13:29:04;20.20;68.20
23301;DHT22;11819;51.394;12.340;2023-08-08T13:31:30;20.20;69.30
23301;DHT22;11819;51.394;12.340;2023-08-08T13:33:55;20.20;69.50
23301;DHT22;11819;51.394;12.340;2023-08-08T13:36:21;20.10;69.30
23301;DHT22;11819;51.394;12.340;2023-08-08T13:38:46;20.00;70.10
23301;DHT22;11819;51.394;12.340;2023-08-08T13:41:12;20.00;70.50
23301;DHT22;11819;51.394;12.340;2023-08-08T13:43:38;19.90;70.30
23301;DHT22;11819;51.394;12.340;2023-08-08T13:46:04;19.90;69.50
23301;DHT22;11819;51.394;12.340;2023-08-08T13:48:33;19.90;69.10
23301;DHT22;11819;51.394;12.340;2023-08-08T13:51:00;19.90;69.80
23301;DHT22;11819;51.394;12.340;2023-08-08T13:53:25;20.00;70.40
23301;DHT22;11819;51.394;12.340;2023-08-08T13:55:51;20.10;69.70
23301;DHT22;11819;51.394;12.340;2023-08-08T13:58:16;20.10;69.10
23301;DHT22;11819;51.394;12.340;2023-08-08T14:00:42;20.20;67.30
23301;DHT22;11819;51.394;12.340;2023-08-08T14:03:08;20.10;66.40
23301;DHT22;11819;51.394;12.340;2023-08-08T14:05:34;20.10;66.60
23301;DHT22;11819;51.394;12.340;2023-08-08T14:07:59;20.00;67.20
23301;DHT22;11819;51.394;12.340;2023-08-08T14:10:25;19.80;68.00
23301;DHT22;11819;51.394;12.340;2023-08-08T14:12:51;19.70;68.50
23301;DHT22;11819;51.394;12.340;2023-08-08T14:15:16;19.60;72.50
23301;DHT22;11819;51.394;12.340;2023-08-08T14:17:42;19.40;73.40
23301;DHT22;11819;51.394;12.340;2023-08-08T14:20:08;19.30;72.30
23301;DHT22;11819;51.394;12.340;2023-08-08T14:22:35;19.10;75.50
23301;DHT22;11819;51.394;12.340;2023-08-08T14:25:00;19.10;76.20
23301;DHT22;11819;51.394;12.340;2023-08-08T14:27:26;18.90;75.20
23301;DHT22;11819;51.394;12.340;2023-08-08T14:29:52;18.90;76.70
23301;DHT22;11819;51.394;12.340;2023-08-08T14:32:18;19.00;76.70
23301;DHT22;11819;51.394;12.340;2023-08-08T14:34:44;18.90;76.70
23301;DHT22;11819;51.394;12.340;2023-08-08T14:37:10;18.80;77.00
23301;DHT22;11819;51.394;12.340;2023-08-08T14:39:36;18.80;76.80
23301;DHT22;11819;51.394;12.340;2023-08-08T14:42:01;18.70;79.20
23301;DHT22;11819;51.394;12.340;2023-08-08T14:44:27;18.70;79.80
23301;DHT22;11819;51.394;12.340;2023-08-08T14:46:53;18.70;80.70
23301;DHT22;11819;51.394;12.340;2023-08-08T14:49:19;18.70;80.50
23301;DHT22;11819;51.394;12.340;2023-08-08T14:51:44;18.60;80.20
23301;DHT22;11819;51.394;12.340;2023-08-08T14:54:10;18.50;80.80
23301;DHT22;11819;51.394;12.340;2023-08-08T14:56:36;18.50;81.10
23301;DHT22;11819;51.394;12.340;2023-08-08T14:59:02;18.40;80.10
23301;DHT22;11819;51.394;12.340;2023-08-08T15:01:27;18.40;79.70
23301;DHT22;11819;51.394;12.340;2023-08-08T15:03:54;18.40;79.70
23301;DHT22;11819;51.394;12.340;2023-08-08T15:06:21;18.40;80.10
23301;DHT22;11819;51.394;12.340;2023-08-08T15:08:47;18.50;80.10
23301;DHT22;11819;51.394;12.340;2023-08-08T15:11:16;18.50;79.90